createdAt,value
2022-10-22T09:27:20.215Z,65.78
2022-10-22T09:29:48.678Z,65.77
2022-10-22T09:32:17.971Z,65.77
2022-10-22T09:34:49.588Z,65.67
2022-10-22T09:37:20.479Z,65.59
2022-10-22T09:39:52.914Z,65.62
2022-10-22T09:42:22.135Z,65.67
2022-10-22T09:44:59.333Z,65.59
2022-10-22T09:48:00.478Z,65.62
2022-10-22T09:50:55.327Z,65.55
2022-10-22T09:53:37.779Z,65.38
2022-10-22T09:56:26.102Z,65.44
2022-10-22T09:58:57.348Z,65.37
2022-10-22T10:01:36.273Z,65.38
2022-10-22T10:04:11.193Z,65.40
2022-10-22T10:06:42.148Z,65.28
2022-10-22T10:09:26.617Z,65.31
2022-10-22T10:12:15.995Z,65.26
2022-10-22T10:15:21.945Z,65.17
2022-10-22T10:18:10.206Z,65.12
2022-10-22T10:20:56.077Z,65.20
2022-10-22T10:23:41.733Z,65.02
2022-10-22T10:26:18.533Z,65.04
2022-10-22T10:28:49.236Z,65.03
2022-10-22T10:31:38.273Z,64.89
2022-10-22T10:34:24.600Z,64.93
2022-10-22T10:37:02.217Z,64.81
2022-10-22T10:40:17.911Z,64.73
2022-10-22T10:42:53.537Z,64.85
2022-10-22T10:45:42.506Z,64.73
2022-10-22T10:48:23.576Z,64.82
2022-10-22T10:51:03.340Z,64.73
2022-10-22T10:53:51.631Z,64.61
2022-10-22T10:56:39.170Z,64.72
2022-10-22T10:59:45.629Z,64.47
2022-10-22T11:02:27.767Z,64.34
2022-10-22T11:05:16.772Z,64.50
2022-10-22T11:07:55.872Z,64.39
2022-10-22T11:10:29.402Z,64.32
2022-10-22T11:13:03.698Z,64.30
2022-10-22T11:15:37.267Z,64.39
2022-10-22T11:18:39.496Z,64.27
2022-10-22T11:21:09.506Z,64.44
2022-10-22T11:23:49.606Z,64.23
2022-10-22T11:26:25.182Z,64.30
2022-10-22T11:28:55.059Z,64.08
2022-10-22T11:31:25.621Z,64.17
2022-10-22T11:34:28.573Z,64.11
2022-10-22T11:36:56.889Z,64.01
2022-10-22T11:39:37.200Z,64.12
2022-10-22T11:42:27.050Z,64.01
2022-10-22T11:45:04.092Z,64.06
2022-10-22T11:47:52.526Z,63.83
2022-10-22T11:51:11.513Z,63.87
2022-10-22T11:53:39.418Z,63.99
2022-10-22T11:56:06.969Z,63.98
2022-10-22T11:58:42.504Z,63.98
2022-10-22T12:01:10.809Z,63.86
2022-10-22T12:03:45.179Z,63.77
2022-10-22T12:06:16.266Z,63.75
2022-10-22T12:08:49.268Z,63.65
2022-10-22T12:11:22.078Z,63.75
2022-10-22T12:14:14.569Z,63.66
2022-10-22T12:27:38.627Z,63.52
2022-10-22T12:30:25.989Z,63.22
2022-10-22T12:33:00.952Z,63.33
2022-10-22T12:35:43.580Z,63.22
